Highlands Peak, California Weather observations

Data are for observation ending at time listed.
 Day   Time    Ave.   Ave.  Ave.  Vector   Max.   Stn.    Total    Solar   Ave.  
  of    of     Air    Rel.  Wind   Wind    Wind   Baro.  Precip.   Rad.    Soil  
Year   Day     Temp.  Hum.  Speed  Dir.    Gust   Pres.                    Temp. 
2026   (PST)    F      %     mph   deg.    mph     mb.     in.     W/m2     F   
------------------------------------------------------------------------------
 246   12:30   61.2    76    3.4   242      5.6   928.9    0.00     874    72.1
 246   12:40   63.2    72    2.7   209      6.4   928.8    0.00     870    72.2
 246   12:50   63.9    69    4.1   232      6.4   928.8    0.00     858    72.4
 246   13:00   62.6    72    4.4   226      7.7   928.8    0.00     852    72.6
 246   13:10   63.5    70    4.0   220      7.1   928.8    0.00     848    72.8
 246   13:20   63.6    70    3.3   234      6.1   928.8    0.00     836    73.1
 246   13:30   63.3    71    4.1   240      7.4   928.8    0.00     818    73.4
 246   13:40   63.6    71    5.2   231      8.5   928.8    0.00     802    73.7
 246   13:50   62.7    73    5.1   235      8.4   928.8    0.00     783    74.1
 246   14:00   62.0    75    3.5   241      6.2   928.8    0.00     766    74.3
 246   14:10   62.5    74    4.4   245      7.9   928.8    0.00     725    74.6
 246   14:20   63.1    71    4.3   245      7.8   928.6    0.00     729    74.9
 246   14:30   63.0    71    3.5   249      5.8   928.5    0.00     707    75.2
 246   14:40   62.9    72    4.4   238      7.3   928.5    0.00     683    75.6
 246   14:50   62.0    75    4.0   226      6.2   928.4    0.00     659    75.9
 246   15:00   60.6    79    4.8   222      8.0   928.3    0.00     635    76.3
 246   15:10   60.8    80    4.3   233      6.7   928.2    0.00     611    76.6
 246   15:20   60.8    80    4.2   246      7.2   928.1    0.00     584    76.8
 246   15:30   61.4    78    3.5   243      5.9   928.0    0.00     551    77.0
 246   15:40   62.1    76    4.8   234      6.9   928.0    0.00     519    77.3
 246   15:50   61.1    79    4.1   243      7.2   927.9    0.00     488    77.6
 246   16:00   61.7    77    3.9   248      6.6   927.8    0.00     457    77.8
 246   16:10   61.5    78    5.5   245      7.8   927.7    0.00     400    78.1
 246   16:20   60.2    84    4.4   248      7.6   927.6    0.00     370    78.3
 246   16:30   60.5    83    3.5   234      7.1   927.5    0.00     357    78.5
 246   16:40   61.5    81    3.5   240      6.7   927.4    0.00     321    78.6
 246   16:50   62.2    79    4.0   236      6.6   927.5    0.00     285    78.8
 246   17:00   60.9    82    5.6   230     11.0   927.5    0.00     248    79.0
 246   17:10   60.0    82    8.6   237     12.9   927.5    0.00     216    79.3
 246   17:20   59.7    80   10.0   240     13.6   927.4    0.00     183    79.4
 246   17:30   60.0    77   10.9   235     15.3   927.4    0.00     152    79.6
 246   17:40   59.5    78   11.1   239     16.2   927.4    0.00     123    79.6
 246   17:50   59.3    79    8.9   243     12.7   927.3    0.00      97    79.5
 246   18:00   58.7    81   10.3   240     14.2   927.3    0.00      72    79.5
 246   18:10   58.0    84    9.4   243     12.3   927.2    0.00      50    79.4
 246   18:20   57.2    86    8.9   253     12.6   927.2    0.00      31    79.4
 246   18:30   56.5    89    6.6   246      9.7   927.1    0.00      12    79.3
 246   18:40   55.5    92    6.4   251      8.7   927.1    0.00       3    79.2
 246   18:50   54.9    95    4.8   261      8.3   927.0    0.00       1    79.1
 246   19:00   54.7    96    3.3   266      4.5   926.9    0.00       0    79.1
 246   19:10   54.3    97    4.5   250      5.4   926.9    0.00       0    79.0
 246   19:20   54.1    99    2.9   251      5.0   926.9    0.00       0    78.9
 246   19:30   54.2   100    2.7   271      3.5   926.9    0.00       0    78.8
 246   19:40   54.4   100    2.4   271      3.2   927.1    0.00       0    78.8
 246   19:50   54.4   100    3.8   260      5.2   927.2    0.00       0    78.7
 246   20:00   54.0   100    4.0   272      5.3   927.3    0.00       0    78.6
 246   20:10   53.9   100    6.2   272      8.6   927.4    0.00       0    78.6
 246   20:20   54.1   100    7.7   267     12.4   927.4    0.00       0    78.5
 246   20:30   54.3   100    9.4   271     12.1   927.4    0.00       0    78.3
 246   20:40   54.2   100    7.6   281     10.1   927.5    0.00       0    78.2
 246   20:50   54.1   100    8.1   271     11.5   927.5    0.00       0    78.1
 246   21:00   54.4   100    9.4   272     13.4   927.5    0.00       0    78.0
 246   21:10   54.5   100    8.1   271     11.8   927.4    0.00       0    77.9
 246   21:20   54.4   100    7.3   279      9.4   927.4    0.00       0    77.8
 246   21:30   54.3   100    7.9   276     12.3   927.4    0.00       0    77.7
 246   21:40   54.6   100    6.9   282     10.4   927.3    0.00       0    77.5
 246   21:50   54.7   100    7.3   278     11.5   927.1    0.00       0    77.4
 246   22:00   54.8   100    7.7   275     11.4   927.1    0.00       0    77.3
 246   22:10   54.7   100    7.3   274      8.9   927.1    0.00       0    77.1
 246   22:20   54.6   100    7.6   270      9.6   927.1    0.00       0    77.1
 246   22:30   54.5   100    6.0   274      8.6   927.1    0.00       0    77.0
 246   22:40   54.3   100    5.3   290      6.6   927.1    0.00       0    77.0
 246   22:50   54.7   100    5.8   292      7.9   927.1    0.00       0    76.9
 246   23:00   54.8   100    5.9   274      8.1   927.1    0.00       0    76.8
 246   23:10   54.7   100    4.7   275      8.3   927.1    0.00       0    76.6
 246   23:20   54.7   100    4.9   298      7.0   927.0    0.00       0    76.5
 246   23:30   55.1   100    5.4   293      7.2   927.0    0.00       0    76.3
 246   23:40   55.2    98    4.9   297      6.4   927.1    0.00       0    76.2
 246   23:50   55.3    98    5.0   297      6.1   927.1    0.00       0    76.2
 247    0:00   55.3    97    3.7   296      4.3   927.2    0.00       0    76.1
 247    0:10   55.6    96    3.2   299      4.2   927.2    0.00       0    76.0
 247    0:20   55.9    93    2.8   307      4.4   927.1    0.00       0    75.9
 247    0:30   56.3    90    2.6   286      3.7   927.0    0.00       0    75.8
 247    0:40   55.9    92    2.5   259      3.7   926.9    0.00       0    75.5
 247    0:50   55.5    93    2.8   278      4.2   926.9    0.00       0    75.5
 247    1:00   55.0    93    1.2   282      2.2   926.8    0.00       0    75.5
 247    1:10   55.5    94    2.1   301      3.1   926.7    0.00       0    75.4
 247    1:20   56.4    91    2.6   310      3.3   926.6    0.00       0    75.2
 247    1:30   56.3    90    3.1   259      3.7   926.6    0.00       0    75.0
 247    1:40   55.3    93    2.7   227      3.9   926.6    0.00       0    74.8
 247    1:50   54.4    98    3.0   235      4.2   926.7    0.00       0    74.7
 247    2:00   54.5    99    2.1   321      3.8   926.7    0.00       0    74.7
 247    2:10   54.4   100    4.1    15      5.2   926.7    0.00       0    74.8
 247    2:20   54.7   100    2.2    13      3.6   926.7    0.00       0    74.7
 247    2:30   55.3   100    0.6   284      2.5   926.8    0.00       0    74.6
 247    2:40   55.8    99    0.8   211      2.2   926.9    0.00       0    74.5
 247    2:50   56.0    98    0.4    18      2.2   926.9    0.00       0    74.4
 247    3:00   56.0    97    2.8     5      4.0   926.9    0.00       0    74.4
 247    3:10   56.1    97    3.1   342      5.7   926.8    0.00       0    74.3
 247    3:20   56.3    97    6.2     9      6.7   926.8    0.00       0    74.4
 247    3:30   56.5    95    4.3    15      6.2   926.7    0.00       0    74.3
 247    3:40   56.9    92    2.8   356      4.7   926.7    0.00       0    74.1
 247    3:50   57.1    90    2.3     6      4.4   926.7    0.00       0    74.1
 247    4:00   57.3    90    1.2   290      3.4   926.8    0.00       0    74.1
 247    4:10   57.6    89    1.9   265      3.1   926.8    0.00       0    73.9
 247    4:20   57.1    90    3.0   234      4.8   926.9    0.00       0    73.7
 247    4:30   55.5    97    2.9   259      4.4   926.9    0.00       0    73.5
 247    4:40   54.9   100    0.3   257      1.8   926.9    0.00       0    73.6
 247    4:50   55.0   100    0.3   215      1.4   926.9    0.00       0    73.6
 247    5:00   54.6   100    0.3    81      1.3   926.9    0.00       0    73.6
 247    5:10   54.4   100    1.2   122      1.7   927.0    0.00       0    73.6
 247    5:20   54.6   100    0.4   112      1.0   927.0    0.00       0    73.5
 247    5:30   54.7   100    0.1   187      1.4   927.0    0.00       0    73.5
 247    5:40   54.8   100    0.9   172      2.1   927.2    0.00       1    73.4
 247    5:50   54.9   100    0.8   271      1.5   927.3    0.00       3    73.3
 247    6:00   54.9   100    2.0   354      3.3   927.4    0.00       7    73.3
 247    6:10   54.8   100    3.0     8      4.5   927.4    0.00       8    73.3
 247    6:20   54.9   100    3.3     8      4.4   927.4    0.00      14    73.3
 247    6:30   54.8   100    2.0    31      2.9   927.5    0.00      24    73.2
 247    6:40   54.8   100    2.4    27      3.4   927.6    0.00      44    73.2
 247    6:50   55.9   100    0.5   354      1.5   927.7    0.00     216    73.1
 247    7:00   56.4    98    1.6   225      2.5   927.8    0.00     265    72.9
 247    7:10   56.5    98    1.4   222      2.3   927.9    0.00     323    72.6
 247    7:20   56.3    99    1.6   222      3.1   927.9    0.00     122    72.5
 247    7:30   56.1   100    0.5   222      1.6   927.9    0.00      96    72.6
 247    7:40   56.6   100    0.5    40      2.2   927.9    0.00     107    72.6
 247    7:50   57.1   100    0.9   125      3.3   928.0    0.00     135    72.7
 247    8:00   56.9   100    0.9   114      3.1   928.0    0.00     138    72.7
 247    8:10   56.9   100    2.0   229      3.3   928.1    0.00     155    72.5
 247    8:20   56.6   100    1.4   199      3.7   928.2    0.00     185    72.5
 247    8:30   57.5   100    1.5   219      3.2   928.2    0.00     317    72.5
 247    8:40   57.4   100    2.4   236      4.1   928.3    0.00     215    72.3
 247    8:50   56.9   100    2.6   243      4.0   928.4    0.00     169    72.2
 247    9:00   56.5   100    3.5   231      5.3   928.4    0.00     145    72.2
 247    9:10   56.2   100    3.8   231      5.6   928.4    0.00     165    72.2
 247    9:20   56.2   100    2.2   213      3.5   928.5    0.00     170    72.2
 247    9:30   56.2   100    2.5   223      4.4   928.6    0.00     198    72.3
 247    9:40   56.4   100    2.3   220      4.7   928.6    0.00     222    72.3
 247    9:50   56.9   100    3.9   239      6.0   928.7    0.00     235    72.3
 247   10:00   56.8   100    3.6   240      5.7   928.8    0.00     248    72.3
 247   10:10   56.8   100    3.0   223      5.0   928.8    0.00     261    72.3
 247   10:20   56.8   100    2.7   231      4.4   928.8    0.00     256    72.3
 247   10:30   57.0   100    2.2   236      4.6   928.9    0.00     263    72.4
 247   10:40   57.2   100    2.1   237      3.8   929.0    0.00     278    72.4
 247   10:50   57.7   100    3.6   225      5.2   929.0    0.00     258    72.4
 247   11:00   57.0   100    2.0   230      5.0   929.0    0.00     261    72.4
 247   11:10   57.5   100    1.1   283      3.1   929.0    0.00     317    72.5
 247   11:20   58.6   100    1.2   196      3.4   929.0    0.00     365    72.6
 247   11:30   59.6    96    2.3   246      5.6   928.9    0.00     395    72.6
 247   11:40   59.1    96    3.0   254      5.1   928.8    0.00     387    72.6
 247   11:50   60.4    92    3.2   238      6.8   928.7    0.00     957    72.6
 247   12:00   61.3    89    4.0   234      7.7   928.7    0.00     802    72.7
 247   12:10   60.4    92    5.0   244      6.9   928.7    0.00     381    72.8
 247   12:20   60.2    94    3.5   244      6.2   928.8    0.00     432    72.9

Return to Highlands Peak graphs page.


Western Regional Climate Center,wrcc@dri.edu